Time;durP1;ratioP1;P1;durP2;ratioP2;P2;SDS_P1;SDS_P2;PMS_P1;PMS_P2;Temp;Humidity;BMP_temperature;BMP_pressure;BME280_temperature;BME280_humidity;BME280_pressure;Samples;Min_cycle;Max_cycle;Signal;HPM_P1;HPM_P2
2022/06/08 00:04:49;;;;;;;;;;;;;;;18.47;78.23;99763.97;10393312;28;19932;-61
2022/06/08 00:09:50;;;;;;;;;;;;;;;18.43;78.52;99762.66;10386700;28;20689;-62
2022/06/08 00:14:52;;;;;;;;;;;;;;;18.37;79.94;99758.03;10387322;28;20016;-61
2022/06/08 00:19:54;;;;;;;;;;;;;;;18.33;80.11;99754.88;10386350;28;19928;-61
2022/06/08 00:24:56;;;;;;;;;;;;;;;18.30;80.69;99752.56;10390236;28;19936;-61
2022/06/08 00:29:57;;;;;;;;;;;;;;;18.29;80.44;99745.50;10386214;28;19929;-61
2022/06/08 00:35:00;;;;;;;;;;;;;;;18.24;81.13;99739.84;10383673;28;20288;-62
2022/06/08 00:40:02;;;;;;;;;;;;;;;17.90;80.45;99714.28;10383135;28;19929;-62
2022/06/08 00:45:07;;;;;;;;;;;;;;;18.00;80.84;99744.47;10383142;28;20008;-62
2022/06/08 00:50:13;;;;;;;;;;;;;;;18.01;80.42;99738.06;10384023;28;19941;-62
2022/06/08 00:55:16;;;;;;;;;;;;;;;17.88;80.93;99729.75;10383684;28;20584;-62
2022/06/08 01:00:28;;;;;;;;;;;;;;;17.86;81.20;99729.09;10388236;28;19978;-62
2022/06/08 01:05:35;;;;;;;;;;;;;;;17.73;81.13;99727.03;10389234;28;19929;-62
2022/06/08 01:10:41;;;;;;;;;;;;;;;17.66;81.95;99729.63;10389419;28;19925;-61
2022/06/08 01:15:43;;;;;;;;;;;;;;;17.75;81.93;99735.75;10387977;28;20082;-62
2022/06/08 01:20:46;;;;;;;;;;;;;;;17.70;81.66;99731.94;10391106;28;19929;-61
2022/06/08 01:26:13;;;;;;;;;;;;;;;17.71;81.46;99739.00;10395140;28;20544;-62
2022/06/08 01:31:26;;;;;;;;;;;;;;;17.55;82.34;99735.44;10394017;28;19944;-62
2022/06/08 01:36:35;;;;;;;;;;;;;;;17.54;82.25;99728.38;10394951;28;20349;-61
2022/06/08 01:41:52;;;;;;;;;;;;;;;17.49;82.67;99726.25;10398960;28;19939;-62
2022/06/08 01:47:04;;;;;;;;;;;;;;;17.55;82.83;99724.69;10398603;28;19924;-62
2022/06/08 01:52:15;;;;;;;;;;;;;;;17.58;82.32;99712.69;10353057;28;19930;-62
2022/06/08 01:57:17;;;;;;;;;;;;;;;17.19;81.59;99641.09;10348152;28;19925;-62
2022/06/08 02:02:22;;;;;;;;;;;;;;;17.59;81.24;99701.75;10352812;28;20384;-63
2022/06/08 02:07:32;;;;;;;;;;;;;;;17.60;81.67;99692.66;10354208;28;19930;-62
2022/06/08 02:12:36;;;;;;;;;;;;;;;17.61;80.95;99697.03;10355173;28;19936;-61
2022/06/08 02:17:43;;;;;;;;;;;;;;;17.46;81.43;99698.88;10355565;28;19929;-62
2022/06/08 02:22:51;;;;;;;;;;;;;;;17.38;82.34;99685.47;10354969;28;19929;-62
2022/06/08 02:27:57;;;;;;;;;;;;;;;17.21;82.60;99674.88;10355081;28;19929;-62
2022/06/08 02:38:38;;;;;;;;;;;;;;;17.17;82.68;99667.34;10356993;28;19987;-62
2022/06/08 02:43:51;;;;;;;;;;;;;;;17.22;83.15;99671.16;10353831;28;19929;-62
2022/06/08 02:48:52;;;;;;;;;;;;;;;17.08;82.55;99634.31;10359571;28;19937;-62
2022/06/08 02:54:04;;;;;;;;;;;;;;;17.29;82.51;99645.22;10356332;28;19925;-62
2022/06/08 02:59:11;;;;;;;;;;;;;;;17.31;82.14;99645.88;10360860;28;19933;-61
2022/06/08 03:04:19;;;;;;;;;;;;;;;17.33;81.71;99644.84;10362452;28;20371;-61
2022/06/08 03:09:21;;;;;;;;;;;;;;;17.35;81.38;99640.13;10357212;28;19979;-63
2022/06/08 03:14:23;;;;;;;;;;;;;;;17.38;80.84;99653.19;10351358;28;19934;-61
2022/06/08 03:19:25;;;;;;;;;;;;;;;17.34;81.70;99666.19;10348142;28;20036;-61
2022/06/08 03:24:27;;;;;;;;;;;;;;;17.40;81.54;99659.22;10350612;28;19929;-61
2022/06/08 03:29:31;;;;;;;;;;;;;;;17.23;81.25;99667.44;10355619;28;20455;-61
2022/06/08 03:34:32;;;;;;;;;;;;;;;17.19;80.67;99660.78;10352753;28;20730;-62
2022/06/08 03:39:34;;;;;;;;;;;;;;;17.27;80.68;99658.00;10349237;28;19959;-62
2022/06/08 03:44:36;;;;;;;;;;;;;;;17.38;80.95;99656.72;10351400;28;19929;-60
2022/06/08 03:49:39;;;;;;;;;;;;;;;17.29;80.27;99655.97;10349557;28;19937;-61
2022/06/08 03:54:42;;;;;;;;;;;;;;;17.30;80.33;99659.50;10351289;28;20479;-61
2022/06/08 03:59:44;;;;;;;;;;;;;;;17.21;80.67;99656.03;10346550;28;20111;-65
2022/06/08 04:04:46;;;;;;;;;;;;;;;17.19;81.13;99654.53;10353856;28;20035;-62
2022/06/08 04:09:47;;;;;;;;;;;;;;;17.30;80.87;99652.25;10344991;28;19939;-64
2022/06/08 04:14:49;;;;;;;;;;;;;;;17.34;80.77;99646.50;10350351;28;20024;-62
2022/06/08 04:19:51;;;;;;;;;;;;;;;17.30;79.71;99662.19;10356991;28;19929;-61
2022/06/08 04:24:52;;;;;;;;;;;;;;;17.38;80.07;99653.19;10352886;28;20019;-61
2022/06/08 04:29:54;;;;;;;;;;;;;;;17.28;79.16;99654.31;10350882;28;19936;-63
2022/06/08 04:34:57;;;;;;;;;;;;;;;17.19;79.57;99660.78;10350168;28;20633;-62
2022/06/08 04:39:58;;;;;;;;;;;;;;;17.19;80.47;99658.09;10344456;28;19957;-63
2022/06/08 04:44:59;;;;;;;;;;;;;;;17.20;79.84;99654.34;10349475;28;20059;-62
2022/06/08 04:50:01;;;;;;;;;;;;;;;17.18;79.48;99661.78;10350626;28;19993;-62
2022/06/08 04:55:04;;;;;;;;;;;;;;;17.24;80.48;99662.91;10345102;28;19959;-64
2022/06/08 05:00:07;;;;;;;;;;;;;;;17.17;81.13;99653.91;10329131;28;19944;-62
2022/06/08 05:05:10;;;;;;;;;;;;;;;17.20;80.21;99650.84;10348084;28;19940;-61
2022/06/08 05:10:11;;;;;;;;;;;;;;;17.22;80.97;99657.72;10347896;28;19933;-62
2022/06/08 05:15:18;;;;;;;;;;;;;;;17.22;80.21;99655.03;10360712;28;19933;-63
2022/06/08 05:20:19;;;;;;;;;;;;;;;17.16;78.93;99655.75;10350651;28;19929;-61
2022/06/08 05:25:23;;;;;;;;;;;;;;;17.07;79.29;99663.06;10354931;28;19940;-60
2022/06/08 05:30:25;;;;;;;;;;;;;;;17.08;80.31;99659.34;10355476;28;19943;-61
2022/06/08 05:35:27;;;;;;;;;;;;;;;17.19;79.50;99647.31;10348712;28;19933;-61
2022/06/08 05:40:28;;;;;;;;;;;;;;;17.24;78.43;99644.91;10347571;28;19940;-62
2022/06/08 05:45:30;;;;;;;;;;;;;;;17.25;77.85;99643.91;10352238;28;20307;-62
2022/06/08 05:50:32;;;;;;;;;;;;;;;17.21;77.34;99642.59;10355186;28;19925;-61
2022/06/08 05:55:33;;;;;;;;;;;;;;;17.25;78.73;99643.91;10358506;28;20804;-61
2022/06/08 06:00:36;;;;;;;;;;;;;;;17.17;78.89;99643.97;10361532;28;19931;-61
2022/06/08 06:05:39;;;;;;;;;;;;;;;17.27;78.06;99636.47;10363912;28;19951;-62
2022/06/08 06:10:42;;;;;;;;;;;;;;;17.41;78.06;99642.91;10365631;28;19940;-62
2022/06/08 06:15:44;;;;;;;;;;;;;;;17.56;78.32;99640.22;10354510;28;19933;-63
2022/06/08 06:20:49;;;;;;;;;;;;;;;17.63;76.83;99641.19;10356804;28;20279;-63
2022/06/08 06:25:51;;;;;;;;;;;;;;;17.77;76.81;99642.19;10356167;28;19933;-63
2022/06/08 06:30:52;;;;;;;;;;;;;;;17.97;76.39;99639.81;10346392;28;19929;-62
2022/06/08 06:35:53;;;;;;;;;;;;;;;18.08;75.90;99640.38;10349439;28;19936;-64
2022/06/08 06:40:54;;;;;;;;;;;;;;;18.28;75.57;99638.75;10345215;28;19940;-62
2022/06/08 06:45:56;;;;;;;;;;;;;;;18.46;74.37;99632.13;10357883;28;20041;-61
2022/06/08 06:50:57;;;;;;;;;;;;;;;18.57;73.29;99631.63;10356005;28;20430;-61
2022/06/08 06:55:58;;;;;;;;;;;;;;;18.65;72.72;99618.03;10360273;28;20099;-61
2022/06/08 07:01:00;;;;;;;;;;;;;;;18.86;72.38;99616.41;10341652;28;19952;-61
2022/06/08 07:06:01;;;;;;;;;;;;;;;18.95;71.55;99612.53;10347637;28;19936;-61
2022/06/08 07:16:23;;;;;;;;;;;;;;;19.56;69.97;99603.03;10350489;28;19930;-61
2022/06/08 07:21:25;;;;;;;;;;;;;;;20.01;68.07;99595.44;10347571;28;19937;-61
2022/06/08 07:26:28;;;;;;;;;;;;;;;19.95;66.39;99593.50;10353462;28;19968;-62
2022/06/08 07:31:29;;;;;;;;;;;;;;;19.83;67.60;99581.59;10347246;28;20483;-62
2022/06/08 07:36:30;;;;;;;;;;;;;;;19.90;66.77;99582.47;10355954;28;19935;-61
2022/06/08 07:41:32;;;;;;;;;;;;;;;20.05;65.77;99568.81;10350438;28;19955;-61
2022/06/08 07:46:33;;;;;;;;;;;;;;;20.18;65.30;99568.88;10345440;28;19933;-65
2022/06/08 07:51:35;;;;;;;;;;;;;;;20.22;64.41;99563.88;10344052;28;19933;-62
2022/06/08 07:56:36;;;;;;;;;;;;;;;20.56;63.19;99548.59;10340536;28;19932;-61
2022/06/08 08:01:37;;;;;;;;;;;;;;;20.74;62.12;99564.22;10338684;28;19929;-61
2022/06/08 08:06:39;;;;;;;;;;;;;;;20.82;60.56;99551.34;10342728;28;20020;-61
2022/06/08 08:11:40;;;;;;;;;;;;;;;20.89;60.29;99547.81;10336539;28;19940;-61
2022/06/08 08:16:43;;;;;;;;;;;;;;;21.32;58.33;99541.94;10346030;28;19933;-61
2022/06/08 08:21:44;;;;;;;;;;;;;;;21.63;55.58;99543.97;10341137;28;19944;-61
2022/06/08 08:26:46;;;;;;;;;;;;;;;21.89;55.26;99521.38;10384534;28;19932;-60
2022/06/08 08:31:49;;;;;;;;;;;;;;;21.81;55.28;99524.34;10384538;28;19992;-60
2022/06/08 08:36:50;;;;;;;;;;;;;;;21.60;55.80;99527.31;10383022;28;19928;-60
2022/06/08 08:47:30;;;;;;;;;;;;;;;22.20;56.75;99508.91;10385355;28;19963;-62
2022/06/08 08:52:31;;;;;;;;;;;;;;;22.75;54.18;99499.38;10387955;28;19928;-62
2022/06/08 08:57:43;;;;;;;;;;;;;;;22.47;53.25;99499.78;10388039;28;20436;-60
2022/06/08 09:08:09;;;;;;;;;;;;;;;22.41;52.30;99487.94;10388293;28;19960;-61
2022/06/08 09:13:12;;;;;;;;;;;;;;;22.57;52.14;99483.88;10391407;28;20630;-61
2022/06/08 09:18:33;;;;;;;;;;;;;;;22.58;51.92;99477.41;10390405;28;19935;-61
2022/06/08 09:23:34;;;;;;;;;;;;;;;22.63;49.79;99471.31;10388382;28;19929;-61
2022/06/08 09:28:36;;;;;;;;;;;;;;;22.46;49.34;99471.84;10391171;28;20410;-61
2022/06/08 09:33:37;;;;;;;;;;;;;;;22.32;50.81;99470.28;10388859;28;22605;-61
2022/06/08 09:38:42;;;;;;;;;;;;;;;22.36;50.32;99438.97;10390148;28;19933;-61
2022/06/08 09:43:51;;;;;;;;;;;;;;;22.44;50.73;99451.44;10397014;28;20028;-61
2022/06/08 09:54:36;;;;;;;;;;;;;;;22.59;46.89;99460.91;10399340;28;19978;-61
2022/06/08 09:59:51;;;;;;;;;;;;;;;22.62;46.92;99456.06;10388978;28;19935;-61
2022/06/08 10:04:58;;;;;;;;;;;;;;;22.86;46.41;99452.50;10393732;28;20316;-61
2022/06/08 10:10:14;;;;;;;;;;;;;;;22.86;45.00;99438.94;10390901;28;19962;-60
2022/06/08 10:15:28;;;;;;;;;;;;;;;23.13;45.79;99433.25;10391595;28;20087;-63
2022/06/08 10:20:34;;;;;;;;;;;;;;;23.05;44.71;99428.94;10394308;28;19932;-62
2022/06/08 10:25:41;;;;;;;;;;;;;;;23.38;45.86;99421.50;10388646;28;20129;-68
2022/06/08 10:30:48;;;;;;;;;;;;;;;23.64;44.52;99434.75;10391278;28;19932;-61
2022/06/08 10:35:55;;;;;;;;;;;;;;;23.59;46.22;99420.19;10387333;28;20104;-64
2022/06/08 10:41:02;;;;;;;;;;;;;;;23.47;46.85;99417.41;10388019;28;19960;-67
2022/06/08 10:46:04;;;;;;;;;;;;;;;23.27;46.76;99412.25;10397088;28;20618;-61
2022/06/08 10:51:11;;;;;;;;;;;;;;;23.19;46.44;99410.63;10391828;28;19940;-63
2022/06/08 10:56:26;;;;;;;;;;;;;;;23.22;46.06;99407.47;10393328;28;19935;-61
2022/06/08 11:01:33;;;;;;;;;;;;;;;23.36;44.95;99404.59;10387995;28;20019;-61
2022/06/08 11:06:57;;;;;;;;;;;;;;;23.54;43.78;99388.28;10389907;28;20000;-61
2022/06/08 11:12:04;;;;;;;;;;;;;;;23.67;43.77;99383.72;10392732;28;19929;-62
2022/06/08 11:17:09;;;;;;;;;;;;;;;24.34;43.36;99378.94;10413564;28;20678;-67
2022/06/08 11:22:20;;;;;;;;;;;;;;;24.65;42.63;99363.38;10388065;28;20008;-61
2022/06/08 11:27:25;;;;;;;;;;;;;;;25.03;42.21;99353.84;10386643;28;25717;-61
2022/06/08 11:32:33;;;;;;;;;;;;;;;24.51;42.09;99353.75;10386287;28;19935;-61
2022/06/08 11:37:42;;;;;;;;;;;;;;;24.16;40.96;99343.69;10391096;28;20316;-61
2022/06/08 11:42:49;;;;;;;;;;;;;;;23.69;41.82;99349.84;10425096;28;19932;-61
2022/06/08 11:48:00;;;;;;;;;;;;;;;23.35;42.27;99343.22;10388271;28;19932;-60
2022/06/08 11:53:05;;;;;;;;;;;;;;;23.29;43.45;99343.06;10390001;28;19998;-61
2022/06/08 11:58:10;;;;;;;;;;;;;;;23.24;42.96;99329.38;10383950;28;19929;-60
2022/06/08 12:03:15;;;;;;;;;;;;;;;23.06;42.69;99323.91;10386263;28;20061;-61
2022/06/08 12:08:20;;;;;;;;;;;;;;;23.01;43.73;99330.03;10393425;28;19939;-61
2022/06/08 12:13:51;;;;;;;;;;;;;;;22.92;43.89;99328.69;10392501;28;20047;-62
2022/06/08 12:18:56;;;;;;;;;;;;;;;22.79;44.61;99321.53;10398071;28;19929;-61
2022/06/08 12:24:00;;;;;;;;;;;;;;;22.64;43.93;99332.75;10395758;28;20504;-60
2022/06/08 12:29:19;;;;;;;;;;;;;;;22.49;44.71;99322.28;10393860;28;19929;-62
2022/06/08 12:34:26;;;;;;;;;;;;;;;22.41;44.84;99322.56;10393667;28;19932;-65
2022/06/08 12:39:28;;;;;;;;;;;;;;;22.37;44.71;99315.94;10391009;28;19983;-62
2022/06/08 12:44:31;;;;;;;;;;;;;;;22.29;44.48;99305.34;10388227;28;20311;-62
2022/06/08 12:49:41;;;;;;;;;;;;;;;22.05;45.22;99275.31;10389114;28;19940;-61
2022/06/08 12:54:42;;;;;;;;;;;;;;;22.21;45.69;99295.63;10383382;28;20000;-61
2022/06/08 12:59:44;;;;;;;;;;;;;;;22.23;45.92;99301.63;10386822;28;19933;-61
2022/06/08 13:04:46;;;;;;;;;;;;;;;22.11;45.73;99301.53;10387506;28;19947;-62
2022/06/08 13:09:59;;;;;;;;;;;;;;;21.99;46.44;99296.03;10386431;28;19929;-61
2022/06/08 13:15:01;;;;;;;;;;;;;;;21.99;46.10;99297.91;10387569;28;20461;-62
2022/06/08 13:20:02;;;;;;;;;;;;;;;21.98;46.06;99290.81;10393492;28;20348;-62
2022/06/08 13:25:05;;;;;;;;;;;;;;;22.04;46.05;99295.38;10392084;28;19928;-61
2022/06/08 13:30:07;;;;;;;;;;;;;;;22.03;46.26;99299.13;10395583;28;19933;-62
2022/06/08 13:35:08;;;;;;;;;;;;;;;21.95;44.97;99296.66;10393275;28;19929;-61
2022/06/08 13:40:12;;;;;;;;;;;;;;;21.94;44.34;99292.31;10396216;28;19929;-62
2022/06/08 13:45:15;;;;;;;;;;;;;;;21.96;45.14;99288.31;10393497;28;19951;-62
2022/06/08 13:50:22;;;;;;;;;;;;;;;22.02;45.70;99297.44;10393221;28;19924;-61
2022/06/08 13:55:26;;;;;;;;;;;;;;;22.03;46.56;99296.41;10394073;28;19933;-61
2022/06/08 14:00:27;;;;;;;;;;;;;;;22.02;47.81;99297.44;10392932;28;19935;-61
2022/06/08 14:16:12;;;;;;;;;;;;;;;21.86;49.22;99307.78;10396865;28;19932;-61
2022/06/08 14:21:14;;;;;;;;;;;;;;;21.89;51.38;99299.22;10392417;28;19936;-61
2022/06/08 14:26:18;;;;;;;;;;;;;;;21.86;50.44;99299.66;10394496;28;20483;-62
2022/06/08 14:31:27;;;;;;;;;;;;;;;21.85;49.77;99292.59;10386792;28;20002;-61
2022/06/08 14:36:29;;;;;;;;;;;;;;;21.81;49.81;99290.53;10394990;28;19971;-61
2022/06/08 14:41:51;;;;;;;;;;;;;;;21.80;50.52;99303.25;10393190;28;19932;-61
2022/06/08 14:46:52;;;;;;;;;;;;;;;21.58;50.61;99307.38;10388807;28;19929;-61
2022/06/08 14:51:55;;;;;;;;;;;;;;;21.38;51.86;99313.72;10390071;28;19932;-61
2022/06/08 14:57:15;;;;;;;;;;;;;;;21.23;54.23;99316.72;10392046;28;20330;-62
2022/06/08 15:02:19;;;;;;;;;;;;;;;20.91;57.52;99341.00;10391303;28;19960;-62
2022/06/08 15:07:20;;;;;;;;;;;;;;;20.55;59.59;99346.88;10385665;28;20590;-61
2022/06/08 15:12:29;;;;;;;;;;;;;;;20.57;61.14;99351.03;10394845;28;19924;-63
2022/06/08 15:17:33;;;;;;;;;;;;;;;20.51;61.00;99345.63;10391403;28;19932;-62
2022/06/08 15:22:34;;;;;;;;;;;;;;;20.11;62.05;99341.91;10392669;28;20129;-62
2022/06/08 15:27:37;;;;;;;;;;;;;;;20.36;65.27;99356.69;10390560;28;19939;-61
2022/06/08 15:32:39;;;;;;;;;;;;;;;20.36;63.36;99346.69;10387832;28;19925;-61
2022/06/08 15:37:41;;;;;;;;;;;;;;;20.18;64.13;99308.69;10393239;28;19939;-61
2022/06/08 15:42:44;;;;;;;;;;;;;;;20.31;64.95;99349.19;10387664;28;19928;-61
2022/06/08 15:47:54;;;;;;;;;;;;;;;20.04;64.68;99360.00;10389657;28;20676;-62
2022/06/08 15:53:01;;;;;;;;;;;;;;;19.86;67.34;99363.31;10388166;28;19939;-61
2022/06/08 15:58:05;;;;;;;;;;;;;;;19.79;68.55;99365.19;10383714;28;19979;-62
2022/06/08 16:03:07;;;;;;;;;;;;;;;19.56;70.37;99379.00;10372272;28;19929;-62
2022/06/08 16:08:08;;;;;;;;;;;;;;;19.31;72.28;99373.31;10386675;28;19929;-63
2022/06/08 16:13:12;;;;;;;;;;;;;;;19.38;72.89;99374.16;10396979;28;20101;-64
2022/06/08 16:18:14;;;;;;;;;;;;;;;19.33;73.30;99366.66;10415772;28;19937;-64
2022/06/08 16:23:16;;;;;;;;;;;;;;;19.36;73.46;99360.88;10415910;28;19987;-62
2022/06/08 16:28:19;;;;;;;;;;;;;;;19.34;72.88;99365.66;10389995;28;19988;-61
2022/06/08 16:33:20;;;;;;;;;;;;;;;18.85;73.75;99336.97;10390032;28;19940;-62
2022/06/08 16:38:22;;;;;;;;;;;;;;;18.90;75.77;99372.31;10390155;28;19928;-62
2022/06/08 16:43:23;;;;;;;;;;;;;;;18.85;75.41;99358.56;10385746;28;20019;-62
2022/06/08 16:48:26;;;;;;;;;;;;;;;18.86;76.37;99362.97;10392167;28;20030;-61
2022/06/08 16:53:28;;;;;;;;;;;;;;;18.96;77.75;99359.88;10396549;28;19928;-61
2022/06/08 17:03:49;;;;;;;;;;;;;;;18.56;76.31;99360.47;10398428;28;19933;-62
2022/06/08 17:08:51;;;;;;;;;;;;;;;18.28;75.96;99353.22;10397639;28;20026;-60
2022/06/08 17:13:52;;;;;;;;;;;;;;;17.98;77.98;99358.75;10401047;28;20379;-61
2022/06/08 17:18:53;;;;;;;;;;;;;;;17.91;77.54;99365.97;10397027;28;19932;-62
2022/06/08 17:23:56;;;;;;;;;;;;;;;17.99;79.08;99349.66;10396599;28;20785;-66
2022/06/08 17:28:57;;;;;;;;;;;;;;;18.13;78.00;99344.41;10396521;28;19997;-62
2022/06/08 17:33:59;;;;;;;;;;;;;;;18.16;80.05;99352.09;10396870;28;19928;-62
2022/06/08 17:39:01;;;;;;;;;;;;;;;18.07;79.66;99346.00;10404307;28;19935;-61
2022/06/08 17:44:03;;;;;;;;;;;;;;;18.17;80.16;99348.38;10399537;28;19929;-63
2022/06/08 17:49:04;;;;;;;;;;;;;;;18.17;80.51;99351.06;10402211;28;19936;-62
2022/06/08 17:54:06;;;;;;;;;;;;;;;18.21;80.33;99352.34;10398024;28;19928;-62
2022/06/08 17:59:07;;;;;;;;;;;;;;;18.18;80.97;99352.75;10399158;28;20663;-62
2022/06/08 18:04:08;;;;;;;;;;;;;;;18.06;81.85;99355.13;10398748;28;20319;-64
2022/06/08 18:09:10;;;;;;;;;;;;;;;18.04;82.11;99359.03;10394366;28;19957;-61
2022/06/08 18:14:11;;;;;;;;;;;;;;;17.90;83.70;99369.69;10387764;28;19929;-62
2022/06/08 18:19:12;;;;;;;;;;;;;;;17.95;84.60;99369.91;10383178;28;20986;-63
2022/06/08 18:24:14;;;;;;;;;;;;;;;17.93;84.27;99368.47;10385154;28;20945;-62
2022/06/08 18:29:18;;;;;;;;;;;;;;;17.64;84.37;99338.75;10373373;28;19940;-64
2022/06/08 18:34:19;;;;;;;;;;;;;;;17.75;83.54;99339.28;10410250;28;19933;-62
2022/06/08 18:39:21;;;;;;;;;;;;;;;18.04;82.58;99372.50;10388226;28;20411;-62
2022/06/08 18:44:22;;;;;;;;;;;;;;;17.80;82.08;99366.44;10394790;28;19934;-63
2022/06/08 18:49:24;;;;;;;;;;;;;;;17.63;83.87;99364.00;10400249;28;19939;-63
2022/06/08 18:54:26;;;;;;;;;;;;;;;17.60;83.22;99372.44;10401121;28;19929;-63
2022/06/08 18:59:27;;;;;;;;;;;;;;;17.52;83.35;99369.91;10383282;28;19933;-63
2022/06/08 19:04:28;;;;;;;;;;;;;;;17.51;84.49;99368.22;10392758;27;20010;-63
2022/06/08 19:09:30;;;;;;;;;;;;;;;17.62;83.91;99373.09;10395765;28;19960;-63
2022/06/08 19:14:31;;;;;;;;;;;;;;;17.60;83.75;99369.75;10395354;28;20627;-62
2022/06/08 19:24:53;;;;;;;;;;;;;;;17.48;85.21;99379.34;10387062;28;19932;-63
2022/06/08 19:29:56;;;;;;;;;;;;;;;17.45;86.37;99387.81;10382009;28;19936;-63
2022/06/08 19:34:58;;;;;;;;;;;;;;;17.40;88.11;99395.59;10397397;28;19933;-63
2022/06/08 19:40:00;;;;;;;;;;;;;;;17.37;87.30;99404.91;10386439;28;19926;-62
2022/06/08 19:45:02;;;;;;;;;;;;;;;17.41;88.73;99403.47;10396701;28;19932;-63
2022/06/08 19:50:04;;;;;;;;;;;;;;;17.47;88.15;99404.59;10391706;28;19966;-61
2022/06/08 19:55:06;;;;;;;;;;;;;;;17.45;87.53;99428.16;10392083;28;20086;-61
2022/06/08 20:00:07;;;;;;;;;;;;;;;17.30;86.35;99431.69;10390677;28;19952;-61
2022/06/08 20:05:09;;;;;;;;;;;;;;;17.37;86.56;99430.94;10393288;28;20050;-62
2022/06/08 20:10:12;;;;;;;;;;;;;;;17.31;87.71;99432.56;10398763;28;19932;-65
2022/06/08 20:15:13;;;;;;;;;;;;;;;17.37;87.98;99431.81;10390022;28;19932;-62
2022/06/08 20:20:15;;;;;;;;;;;;;;;17.36;87.96;99435.50;10391558;28;20012;-63
2022/06/08 20:25:20;;;;;;;;;;;;;;;17.26;89.33;99441.19;10385712;28;19925;-62
2022/06/08 20:30:24;;;;;;;;;;;;;;;17.31;89.77;99446.81;10387175;28;20073;-62
2022/06/08 20:35:26;;;;;;;;;;;;;;;17.40;87.98;99452.09;10396914;28;19928;-62
2022/06/08 20:40:27;;;;;;;;;;;;;;;17.40;88.59;99452.09;10398938;28;20006;-61
2022/06/08 20:45:30;;;;;;;;;;;;;;;17.47;89.02;99453.88;10390468;28;19939;-62
2022/06/08 20:50:32;;;;;;;;;;;;;;;17.54;88.89;99462.00;10388669;28;20058;-61
2022/06/08 20:55:33;;;;;;;;;;;;;;;17.53;86.31;99465.72;10392551;28;19925;-62
2022/06/08 21:00:35;;;;;;;;;;;;;;;17.50;85.94;99468.78;10393988;28;19966;-62
2022/06/08 21:05:39;;;;;;;;;;;;;;;17.42;85.40;99466.19;10392444;28;19929;-62
2022/06/08 21:10:41;;;;;;;;;;;;;;;17.42;84.28;99471.59;10379741;28;19929;-63
2022/06/08 21:15:44;;;;;;;;;;;;;;;17.39;84.13;99466.59;10383740;28;20155;-64
2022/06/08 21:20:45;;;;;;;;;;;;;;;17.37;84.11;99463.22;10390365;28;20054;-61
2022/06/08 21:25:48;;;;;;;;;;;;;;;17.37;83.48;99471.28;10390744;28;19925;-61
2022/06/08 21:30:50;;;;;;;;;;;;;;;17.29;83.53;99472.22;10383347;28;19928;-62
2022/06/08 21:35:51;;;;;;;;;;;;;;;17.29;81.92;99483.00;10390298;28;20579;-61
2022/06/08 21:40:54;;;;;;;;;;;;;;;17.35;81.64;99476.03;10392036;28;19959;-61
2022/06/08 21:45:57;;;;;;;;;;;;;;;17.34;82.35;99469.84;10393355;28;19987;-68
2022/06/08 21:50:59;;;;;;;;;;;;;;;17.36;81.81;99477.72;10395825;28;19924;-62
2022/06/08 21:56:00;;;;;;;;;;;;;;;17.33;82.32;99495.06;10394797;28;20630;-62
2022/06/08 22:01:03;;;;;;;;;;;;;;;17.41;81.58;99488.75;10396124;28;20024;-61
2022/06/08 22:06:05;;;;;;;;;;;;;;;17.50;82.01;99495.69;10392015;28;19976;-61
2022/06/08 22:11:08;;;;;;;;;;;;;;;17.53;81.45;99492.63;10392886;28;19935;-63
2022/06/08 22:16:09;;;;;;;;;;;;;;;17.46;82.26;99489.03;10391760;28;20008;-62
2022/06/08 22:21:11;;;;;;;;;;;;;;;17.55;81.68;99487.03;10392042;28;19936;-62
2022/06/08 22:26:14;;;;;;;;;;;;;;;17.60;81.47;99493.53;10393910;28;19925;-62
2022/06/08 22:31:16;;;;;;;;;;;;;;;17.61;80.83;99484.47;10395356;28;19929;-62
2022/06/08 22:36:19;;;;;;;;;;;;;;;17.40;80.72;99465.53;10396852;28;19929;-61
2022/06/08 22:41:21;;;;;;;;;;;;;;;17.54;80.83;99475.47;10397801;28;19929;-61
2022/06/08 22:46:22;;;;;;;;;;;;;;;17.51;80.00;99478.53;10391571;28;19983;-63
2022/06/08 22:51:23;;;;;;;;;;;;;;;17.56;80.92;99484.16;10391526;28;19929;-62
2022/06/08 22:56:25;;;;;;;;;;;;;;;17.61;80.41;99484.47;10398620;28;19936;-61
2022/06/08 23:01:27;;;;;;;;;;;;;;;17.60;80.02;99488.16;10396700;28;20011;-62
2022/06/08 23:06:28;;;;;;;;;;;;;;;17.52;78.93;99493.66;10396335;28;19974;-63
2022/06/08 23:11:41;;;;;;;;;;;;;;;17.52;79.41;99482.91;10396650;28;19936;-62
2022/06/08 23:22:02;;;;;;;;;;;;;;;17.57;79.03;99490.41;10391410;28;19924;-61
2022/06/08 23:27:04;;;;;;;;;;;;;;;17.57;79.35;99485.84;10390909;28;19926;-61
2022/06/08 23:32:06;;;;;;;;;;;;;;;17.51;79.88;99485.78;10394710;28;19949;-61
2022/06/08 23:37:07;;;;;;;;;;;;;;;17.49;80.69;99488.66;10398291;28;20182;-62
2022/06/08 23:42:09;;;;;;;;;;;;;;;17.44;81.04;99481.16;10385452;28;20549;-62
2022/06/08 23:47:30;;;;;;;;;;;;;;;17.46;81.18;99489.84;10387142;28;19929;-62
2022/06/08 23:52:31;;;;;;;;;;;;;;;17.47;81.60;99496.06;10387268;28;19935;-63
2022/06/08 23:57:32;;;;;;;;;;;;;;;17.40;81.30;99495.13;10393961;28;19932;-63
